Etusivu
METAR-TAF:

METAR-TAF

Lentoasemat :

Diourbel, Senegal

Leveyspiiri: 14-39N, Pituuspiiri: 016-14W, korkeus merenpinnasta: 7 m

Tämänhetkinen sää

Tämä raportti tehtiin 1 tunti ja 3 minuuttia sitten, kello 12.00 UTC
Tuuli 4 kn pohjoisen/luoteesta
Lämpötila 34°C
Kosteus 41%
Ilmanpaine 1013 hPa
Näkyvyys: 6000 m

METAR: GOOD 061200Z 34004KT 6000 NSC 34/19 Q1013

Aika: 13:03 (13:03 UTC)


TAF: puuttuu

Säähavainnot ja -ennusteet yli 4000 lentoasemalta (METAR- ja TAF-raportit).

Käytössä olevat sääasemat on merkitty karttaan keltaisilla ja punaisilla pisteillä.

Aseta hiiri pisteen päälle nähdäksesi sääaseman nimen.

Klikkaa sitten nähdäksesi säähavainnot ja -ennusteet.

Kartan vaihtaminen: klikkaa mustalla rastilla varustettuja vihreitä pisteitä, niin voit zoomata sisään; viivalla varustettua vihreää pistettä, niin voit zoomata ulos tai vihreitä nuolia, niin pääset viereisille kartoille.


METAR-TAF: